• Join FlightAware (Why Join?)
  • Login
  • US Flag 
01:44AM EDT


 

Airport Tracker/Info


-or-


 

Live Flight TrackerFlight Track Log ✈ N474RL ✈ 13-Jul-2014 ✈ KMYR - KGYH

Flight Track Log - Related Links

Times and Time Zones

All times are in EDT time to prevent confusion due to time zone crossing. See the N474RL flight status page for this flight to view local times or setup timezone preferences in your user account.

Time Position Orientation Groundspeed Altitude Reporting Facility
EDT Latitude Longitude Course Direction KTS MPH feet Rate Location/Type
01:19PM 33.7707 -79.1954 292° West  Level FlightAware Approximate
01:20PM 33.7833 -79.2434 270° West  Level FlightAware Approximate
01:21PM 33.7919 -79.2924 292° West  Level FlightAware Approximate
01:22PM 33.8077 -79.3397 292° West  Level FlightAware Approximate
01:23PM 33.8235 -79.3870 292° West  Level FlightAware Approximate
01:24PM 33.8393 -79.4343 292° West  Level FlightAware Approximate
01:25PM 33.8550 -79.4817 292° West  Level FlightAware Approximate
01:26PM 33.8707 -79.5291 291° West  Level FlightAware Approximate
01:27PM 33.8862 -79.5766 291° West  Level FlightAware Approximate
01:28PM 33.9016 -79.6242 291° West  Level FlightAware Approximate
01:29PM 33.9170 -79.6717 291° West  Level FlightAware Approximate
01:30PM 33.9324 -79.7193 291° West  Level FlightAware Approximate
01:31PM 33.9477 -79.7669 291° West  Level FlightAware Approximate
01:32PM 33.9631 -79.8145 291° West  Level FlightAware Approximate
01:33PM 33.9784 -79.8621 291° West  Level FlightAware Approximate
01:34PM 33.9937 -79.9098 291° West  Level FlightAware Approximate
01:35PM 34.0090 -79.9574 291° West  Level FlightAware Approximate
01:36PM 34.0243 -80.0051 291° West  Level FlightAware Approximate
01:37PM 34.0397 -80.0527 292° West  Level FlightAware Approximate
01:38PM 34.0554 -80.1003 292° West  Level FlightAware Approximate
01:39PM 34.0710 -80.1478 292° West  Level FlightAware Approximate
01:40PM 34.0866 -80.1954 292° West  Level FlightAware Approximate
01:41PM 34.1021 -80.2430 292° West  Level FlightAware Approximate
01:42PM 34.1177 -80.2906 292° West  Level FlightAware Approximate
01:43PM 34.1333 -80.3382 292° West  Level FlightAware Approximate
01:44PM 34.1488 -80.3858 292° West  Level FlightAware Approximate
01:45PM 34.1643 -80.4334 291° West  Level FlightAware Approximate
01:46PM 34.1798 -80.4811 291° West  Level FlightAware Approximate
01:47PM 34.1952 -80.5288 291° West  Level FlightAware Approximate
01:48PM 34.2107 -80.5765 291° West  Level FlightAware Approximate
01:48PM 34.1932 -80.5749 291° West 171 197 7,800  Level FlightAware ADS-B (KCDN)
01:48PM 34.1990 -80.5930 291° West 172 198 7,800  Level FlightAware ADS-B (KCDN)
02:01PM 34.4109 -81.2562 291° West 177 204 7,800  Level FlightAware ADS-B (KCDN)
02:01PM 34.4156 -81.2711 291° West 177 204 7,800  Level FlightAware ADS-B (KCDN)
02:01PM 34.4207 -81.2853 291° West 177 204 7,800  Level FlightAware ADS-B (KCDN)
02:01PM 34.4271 -81.3008 291° West 177 204 7,800  Level FlightAware ADS-B (KCDN)
02:02PM 34.4352 -81.3251 290° West 174 200 7,800  Level FlightAware ADS-B (KCDN)
02:02PM 34.4434 -81.3558 288° West 175 201 7,800  Level FlightAware ADS-B (KCDN)
02:03PM 34.4515 -81.3837 290° West 178 205 7,800  Level FlightAware ADS-B (KCDN)
02:04PM 34.4698 -81.4432 291° West 174 200 7,800  Level FlightAware ADS-B (KCDN)
02:04PM 34.4771 -81.4663 291° West 174 200 7,800  Level FlightAware ADS-B (KCDN)
02:05PM 34.4840 -81.4874 292° West 174 200 7,800  Level FlightAware ADS-B (KCDN)
02:05PM 34.4914 -81.5093 293° West 174 200 7,800  Level FlightAware ADS-B (KCDN)
02:08PM 34.5267 -81.6196 291° West  Level FlightAware Approximate
02:09PM 34.5420 -81.6675 291° West  Level FlightAware Approximate
02:10PM 34.5573 -81.7155 291° West  Level FlightAware Approximate
02:11PM 34.5726 -81.7635 291° West  Level FlightAware Approximate
02:12PM 34.5878 -81.8115 291° West  Level FlightAware Approximate
02:13PM 34.6020 -81.8599 284° West  Level FlightAware Approximate
02:14PM 34.6120 -81.9100 284° West  Level FlightAware Approximate
02:15PM 34.6252 -81.9587 292° West  Level FlightAware Approximate
02:16PM 34.6411 -82.0065 292° West  Level FlightAware Approximate
02:17PM 34.6570 -82.0542 292° West  Level FlightAware Approximate
02:18PM 34.6718 -82.1024 288° West  Level FlightAware Approximate
02:19PM 34.6849 -82.1514 288° West  Level FlightAware Approximate
02:20PM 34.6980 -82.2004 288° West  Level FlightAware Approximate
02:21PM 34.7110 -82.2495 288° West  Level FlightAware Approximate
02:22PM 34.7241 -82.2985 288° West  Level FlightAware Approximate
02:23PM 34.7397 -82.3461 301° West  Level FlightAware Approximate
02:24PM 34.7500 -82.3667 301° West  Level FlightAware Approximate
02:25PM 34.7583 -82.3764 301° West  Level Estimated
02:26PM 34.7583 -82.3764 301° West  Level Estimated
02:27PM 34.7583 -82.3764 301° West  Level Estimated
02:28PM 34.7583 -82.3764 301° West  Level Estimated
02:29PM 34.7583 -82.3764 301° West  Level Estimated
02:30PM 34.7583 -82.3764 301° West  Level Estimated